sensor_id;sensor_type;location;lat;lon;timestamp;temperature;humidity
7028;DHT22;3555;53.248;10.336;2023-01-29T00:00:31;2.00;99.90
7028;DHT22;3555;53.248;10.336;2023-01-29T00:02:59;2.00;99.90
7028;DHT22;3555;53.248;10.336;2023-01-29T00:05:26;2.00;99.90
7028;DHT22;3555;53.248;10.336;2023-01-29T00:07:54;2.00;99.90
7028;DHT22;3555;53.248;10.336;2023-01-29T00:10:21;1.90;99.90
7028;DHT22;3555;53.248;10.336;2023-01-29T00:12:48;1.90;99.90
7028;DHT22;3555;53.248;10.336;2023-01-29T00:15:16;1.90;99.90
7028;DHT22;3555;53.248;10.336;2023-01-29T00:17:43;1.90;99.90
7028;DHT22;3555;53.248;10.336;2023-01-29T00:20:11;1.90;99.90
7028;DHT22;3555;53.248;10.336;2023-01-29T00:22:38;1.90;99.90
7028;DHT22;3555;53.248;10.336;2023-01-29T00:25:07;1.90;99.90
7028;DHT22;3555;53.248;10.336;2023-01-29T00:27:34;2.00;99.90
7028;DHT22;3555;53.248;10.336;2023-01-29T00:30:01;2.00;99.90
7028;DHT22;3555;53.248;10.336;2023-01-29T00:32:37;2.10;99.90
7028;DHT22;3555;53.248;10.336;2023-01-29T00:35:05;2.00;99.90
7028;DHT22;3555;53.248;10.336;2023-01-29T00:37:32;2.10;99.90
7028;DHT22;3555;53.248;10.336;2023-01-29T00:39:59;2.10;99.90
7028;DHT22;3555;53.248;10.336;2023-01-29T00:42:27;2.00;99.90
7028;DHT22;3555;53.248;10.336;2023-01-29T00:45:12;2.00;99.90
7028;DHT22;3555;53.248;10.336;2023-01-29T00:47:39;2.00;99.90
7028;DHT22;3555;53.248;10.336;2023-01-29T00:50:07;2.00;99.90
7028;DHT22;3555;53.248;10.336;2023-01-29T00:52:35;1.90;99.90
7028;DHT22;3555;53.248;10.336;2023-01-29T00:55:03;1.80;99.90
7028;DHT22;3555;53.248;10.336;2023-01-29T00:57:33;1.70;99.90
7028;DHT22;3555;53.248;10.336;2023-01-29T01:00:01;1.80;99.90
7028;DHT22;3555;53.248;10.336;2023-01-29T01:02:28;1.80;99.90
7028;DHT22;3555;53.248;10.336;2023-01-29T01:05:14;1.80;99.90
7028;DHT22;3555;53.248;10.336;2023-01-29T01:07:43;1.90;99.90
7028;DHT22;3555;53.248;10.336;2023-01-29T01:10:12;1.90;99.90
7028;DHT22;3555;53.248;10.336;2023-01-29T01:12:53;1.90;99.90
7028;DHT22;3555;53.248;10.336;2023-01-29T01:15:21;1.90;99.90
7028;DHT22;3555;53.248;10.336;2023-01-29T01:17:51;2.00;99.90
7028;DHT22;3555;53.248;10.336;2023-01-29T01:20:19;2.00;99.90
7028;DHT22;3555;53.248;10.336;2023-01-29T01:22:46;2.10;99.90
7028;DHT22;3555;53.248;10.336;2023-01-29T01:25:13;2.10;99.90
7028;DHT22;3555;53.248;10.336;2023-01-29T01:27:40;2.10;99.90
7028;DHT22;3555;53.248;10.336;2023-01-29T01:30:12;2.20;99.90
7028;DHT22;3555;53.248;10.336;2023-01-29T01:32:39;2.20;99.90
7028;DHT22;3555;53.248;10.336;2023-01-29T01:35:07;2.30;99.90
7028;DHT22;3555;53.248;10.336;2023-01-29T01:37:34;2.30;99.90
7028;DHT22;3555;53.248;10.336;2023-01-29T01:40:04;2.40;99.90
7028;DHT22;3555;53.248;10.336;2023-01-29T01:42:37;2.50;99.90
7028;DHT22;3555;53.248;10.336;2023-01-29T01:45:07;2.60;99.90
7028;DHT22;3555;53.248;10.336;2023-01-29T01:47:39;2.60;99.90
7028;DHT22;3555;53.248;10.336;2023-01-29T01:50:10;2.60;99.90
7028;DHT22;3555;53.248;10.336;2023-01-29T01:52:41;2.60;99.90
7028;DHT22;3555;53.248;10.336;2023-01-29T01:55:11;2.40;99.90
7028;DHT22;3555;53.248;10.336;2023-01-29T01:57:39;2.20;99.90
7028;DHT22;3555;53.248;10.336;2023-01-29T02:00:12;2.10;99.90
7028;DHT22;3555;53.248;10.336;2023-01-29T02:02:44;2.00;99.90
7028;DHT22;3555;53.248;10.336;2023-01-29T02:05:30;2.00;99.90
7028;DHT22;3555;53.248;10.336;2023-01-29T02:08:17;2.00;99.90
7028;DHT22;3555;53.248;10.336;2023-01-29T02:11:05;2.10;99.90
7028;DHT22;3555;53.248;10.336;2023-01-29T02:13:32;2.10;99.90
7028;DHT22;3555;53.248;10.336;2023-01-29T02:15:59;2.00;99.90
7028;DHT22;3555;53.248;10.336;2023-01-29T02:18:28;2.10;99.90
7028;DHT22;3555;53.248;10.336;2023-01-29T02:21:06;2.00;99.90
7028;DHT22;3555;53.248;10.336;2023-01-29T02:27:04;2.10;99.90
7028;DHT22;3555;53.248;10.336;2023-01-29T02:29:41;2.10;99.90
7028;DHT22;3555;53.248;10.336;2023-01-29T02:32:19;2.10;99.90
7028;DHT22;3555;53.248;10.336;2023-01-29T02:34:54;2.10;99.90
7028;DHT22;3555;53.248;10.336;2023-01-29T02:37:46;2.10;99.90
7028;DHT22;3555;53.248;10.336;2023-01-29T02:40:25;2.10;99.90
7028;DHT22;3555;53.248;10.336;2023-01-29T02:43:03;2.10;99.90
7028;DHT22;3555;53.248;10.336;2023-01-29T02:45:42;2.10;99.90
7028;DHT22;3555;53.248;10.336;2023-01-29T02:48:17;2.10;99.90
7028;DHT22;3555;53.248;10.336;2023-01-29T02:50:48;2.10;99.90
7028;DHT22;3555;53.248;10.336;2023-01-29T02:53:21;2.00;99.90
7028;DHT22;3555;53.248;10.336;2023-01-29T02:55:54;2.00;99.90
7028;DHT22;3555;53.248;10.336;2023-01-29T02:58:29;2.10;99.90
7028;DHT22;3555;53.248;10.336;2023-01-29T03:01:02;2.10;99.90
7028;DHT22;3555;53.248;10.336;2023-01-29T03:03:33;2.10;99.90
7028;DHT22;3555;53.248;10.336;2023-01-29T03:06:04;2.10;99.90
7028;DHT22;3555;53.248;10.336;2023-01-29T03:08:36;2.10;99.90
7028;DHT22;3555;53.248;10.336;2023-01-29T03:11:08;2.10;99.90
7028;DHT22;3555;53.248;10.336;2023-01-29T03:13:42;2.10;99.90
7028;DHT22;3555;53.248;10.336;2023-01-29T03:16:16;2.00;99.90
7028;DHT22;3555;53.248;10.336;2023-01-29T03:18:48;2.00;99.90
7028;DHT22;3555;53.248;10.336;2023-01-29T03:21:22;2.10;99.90
7028;DHT22;3555;53.248;10.336;2023-01-29T03:24:11;2.10;99.90
7028;DHT22;3555;53.248;10.336;2023-01-29T03:27:01;2.00;99.90
7028;DHT22;3555;53.248;10.336;2023-01-29T03:29:48;2.10;99.90
7028;DHT22;3555;53.248;10.336;2023-01-29T03:32:35;2.00;99.90
7028;DHT22;3555;53.248;10.336;2023-01-29T03:35:05;2.00;99.90
7028;DHT22;3555;53.248;10.336;2023-01-29T03:37:36;1.90;99.90
7028;DHT22;3555;53.248;10.336;2023-01-29T03:40:07;1.90;99.90
7028;DHT22;3555;53.248;10.336;2023-01-29T03:42:43;2.00;99.90
7028;DHT22;3555;53.248;10.336;2023-01-29T03:45:20;1.90;99.90
7028;DHT22;3555;53.248;10.336;2023-01-29T03:47:58;1.90;99.90
7028;DHT22;3555;53.248;10.336;2023-01-29T03:50:33;1.90;99.90
7028;DHT22;3555;53.248;10.336;2023-01-29T03:53:06;1.80;99.90
7028;DHT22;3555;53.248;10.336;2023-01-29T03:55:38;1.80;99.90
7028;DHT22;3555;53.248;10.336;2023-01-29T03:58:15;1.70;99.90
7028;DHT22;3555;53.248;10.336;2023-01-29T04:00:50;1.70;99.90
7028;DHT22;3555;53.248;10.336;2023-01-29T04:03:20;1.80;99.90
7028;DHT22;3555;53.248;10.336;2023-01-29T04:05:52;1.80;99.90
7028;DHT22;3555;53.248;10.336;2023-01-29T04:08:26;1.80;99.90
7028;DHT22;3555;53.248;10.336;2023-01-29T04:10:55;1.70;99.90
7028;DHT22;3555;53.248;10.336;2023-01-29T04:13:24;1.80;99.90
7028;DHT22;3555;53.248;10.336;2023-01-29T04:15:55;1.80;99.90
7028;DHT22;3555;53.248;10.336;2023-01-29T04:18:26;1.90;99.90
7028;DHT22;3555;53.248;10.336;2023-01-29T04:20:53;1.90;99.90
7028;DHT22;3555;53.248;10.336;2023-01-29T04:23:23;1.70;99.90
7028;DHT22;3555;53.248;10.336;2023-01-29T04:25:57;1.70;99.90
7028;DHT22;3555;53.248;10.336;2023-01-29T04:28:44;1.70;99.90
7028;DHT22;3555;53.248;10.336;2023-01-29T04:31:16;1.70;99.90
7028;DHT22;3555;53.248;10.336;2023-01-29T04:33:51;1.80;99.90
7028;DHT22;3555;53.248;10.336;2023-01-29T04:36:29;1.80;99.90
7028;DHT22;3555;53.248;10.336;2023-01-29T04:39:07;1.70;99.90
7028;DHT22;3555;53.248;10.336;2023-01-29T04:41:41;1.70;99.90
7028;DHT22;3555;53.248;10.336;2023-01-29T04:44:17;1.70;99.90
7028;DHT22;3555;53.248;10.336;2023-01-29T04:46:48;1.80;99.90
7028;DHT22;3555;53.248;10.336;2023-01-29T04:49:28;1.70;99.90
7028;DHT22;3555;53.248;10.336;2023-01-29T04:52:04;1.60;99.90
7028;DHT22;3555;53.248;10.336;2023-01-29T04:54:42;1.70;99.90
7028;DHT22;3555;53.248;10.336;2023-01-29T04:57:16;1.70;99.90
7028;DHT22;3555;53.248;10.336;2023-01-29T04:59:47;1.70;99.90
7028;DHT22;3555;53.248;10.336;2023-01-29T05:02:17;1.70;99.90
7028;DHT22;3555;53.248;10.336;2023-01-29T05:04:47;1.60;99.90
7028;DHT22;3555;53.248;10.336;2023-01-29T05:07:17;1.60;99.90
7028;DHT22;3555;53.248;10.336;2023-01-29T05:09:46;1.60;99.90
7028;DHT22;3555;53.248;10.336;2023-01-29T05:12:15;1.60;99.90
7028;DHT22;3555;53.248;10.336;2023-01-29T05:14:44;1.70;99.90
7028;DHT22;3555;53.248;10.336;2023-01-29T05:17:15;1.60;99.90
7028;DHT22;3555;53.248;10.336;2023-01-29T05:19:44;1.80;99.90
7028;DHT22;3555;53.248;10.336;2023-01-29T05:22:14;1.80;99.90
7028;DHT22;3555;53.248;10.336;2023-01-29T05:24:42;1.90;99.90
7028;DHT22;3555;53.248;10.336;2023-01-29T05:27:14;1.80;99.90
7028;DHT22;3555;53.248;10.336;2023-01-29T05:30:00;1.70;99.90
7028;DHT22;3555;53.248;10.336;2023-01-29T05:32:27;1.70;99.90
7028;DHT22;3555;53.248;10.336;2023-01-29T05:34:53;1.70;99.90
7028;DHT22;3555;53.248;10.336;2023-01-29T05:37:22;1.80;99.90
7028;DHT22;3555;53.248;10.336;2023-01-29T05:39:48;1.80;99.90
7028;DHT22;3555;53.248;10.336;2023-01-29T05:42:15;2.00;99.90
7028;DHT22;3555;53.248;10.336;2023-01-29T05:44:42;1.80;99.90
7028;DHT22;3555;53.248;10.336;2023-01-29T05:47:09;1.70;99.90
7028;DHT22;3555;53.248;10.336;2023-01-29T05:49:36;1.60;99.90
7028;DHT22;3555;53.248;10.336;2023-01-29T05:52:03;1.60;99.90
7028;DHT22;3555;53.248;10.336;2023-01-29T05:54:31;1.70;99.90
7028;DHT22;3555;53.248;10.336;2023-01-29T05:56:58;1.60;99.90
7028;DHT22;3555;53.248;10.336;2023-01-29T05:59:25;1.60;99.90
7028;DHT22;3555;53.248;10.336;2023-01-29T06:01:52;1.60;99.90
7028;DHT22;3555;53.248;10.336;2023-01-29T06:04:18;1.60;99.90
7028;DHT22;3555;53.248;10.336;2023-01-29T06:06:45;1.60;99.90
7028;DHT22;3555;53.248;10.336;2023-01-29T06:09:12;1.60;99.90
7028;DHT22;3555;53.248;10.336;2023-01-29T06:11:40;1.60;99.90
7028;DHT22;3555;53.248;10.336;2023-01-29T06:14:07;1.60;99.90
7028;DHT22;3555;53.248;10.336;2023-01-29T06:16:34;1.60;99.90
7028;DHT22;3555;53.248;10.336;2023-01-29T06:19:01;1.60;99.90
7028;DHT22;3555;53.248;10.336;2023-01-29T06:21:28;1.60;99.90
7028;DHT22;3555;53.248;10.336;2023-01-29T06:23:55;1.60;99.90
7028;DHT22;3555;53.248;10.336;2023-01-29T06:26:21;1.70;99.90
7028;DHT22;3555;53.248;10.336;2023-01-29T06:28:50;1.70;99.90
7028;DHT22;3555;53.248;10.336;2023-01-29T06:31:17;1.70;99.90
7028;DHT22;3555;53.248;10.336;2023-01-29T06:33:44;1.60;99.90
7028;DHT22;3555;53.248;10.336;2023-01-29T06:36:11;1.60;99.90
7028;DHT22;3555;53.248;10.336;2023-01-29T06:38:37;1.60;99.90
7028;DHT22;3555;53.248;10.336;2023-01-29T06:41:08;1.50;99.90
7028;DHT22;3555;53.248;10.336;2023-01-29T06:43:36;1.50;99.90
7028;DHT22;3555;53.248;10.336;2023-01-29T06:46:06;1.40;99.90
7028;DHT22;3555;53.248;10.336;2023-01-29T06:48:33;1.50;99.90
7028;DHT22;3555;53.248;10.336;2023-01-29T06:51:01;1.50;99.90
7028;DHT22;3555;53.248;10.336;2023-01-29T06:53:28;1.60;99.90
7028;DHT22;3555;53.248;10.336;2023-01-29T06:55:55;1.60;99.90
7028;DHT22;3555;53.248;10.336;2023-01-29T06:58:22;1.50;99.90
7028;DHT22;3555;53.248;10.336;2023-01-29T07:00:48;1.50;99.90
7028;DHT22;3555;53.248;10.336;2023-01-29T07:03:17;1.50;99.90
7028;DHT22;3555;53.248;10.336;2023-01-29T07:05:49;1.60;99.90
7028;DHT22;3555;53.248;10.336;2023-01-29T07:08:16;1.60;99.90
7028;DHT22;3555;53.248;10.336;2023-01-29T07:10:43;1.60;99.90
7028;DHT22;3555;53.248;10.336;2023-01-29T07:13:10;1.60;99.90
7028;DHT22;3555;53.248;10.336;2023-01-29T07:15:37;1.60;99.90
7028;DHT22;3555;53.248;10.336;2023-01-29T07:18:04;1.60;99.90
7028;DHT22;3555;53.248;10.336;2023-01-29T07:20:39;1.60;99.90
7028;DHT22;3555;53.248;10.336;2023-01-29T07:23:07;1.60;99.90
7028;DHT22;3555;53.248;10.336;2023-01-29T07:25:34;1.60;99.90
7028;DHT22;3555;53.248;10.336;2023-01-29T07:28:01;1.70;99.90
7028;DHT22;3555;53.248;10.336;2023-01-29T07:30:29;1.70;99.90
7028;DHT22;3555;53.248;10.336;2023-01-29T07:33:00;1.80;99.90
7028;DHT22;3555;53.248;10.336;2023-01-29T07:35:27;1.70;99.90
7028;DHT22;3555;53.248;10.336;2023-01-29T07:37:56;1.80;99.90
7028;DHT22;3555;53.248;10.336;2023-01-29T07:40:22;1.70;99.90
7028;DHT22;3555;53.248;10.336;2023-01-29T07:42:49;1.70;99.90
7028;DHT22;3555;53.248;10.336;2023-01-29T07:45:16;1.70;99.90
7028;DHT22;3555;53.248;10.336;2023-01-29T07:47:43;1.70;99.90
7028;DHT22;3555;53.248;10.336;2023-01-29T07:50:10;1.70;99.90
7028;DHT22;3555;53.248;10.336;2023-01-29T07:52:37;1.70;99.90
7028;DHT22;3555;53.248;10.336;2023-01-29T07:55:06;1.70;99.90
7028;DHT22;3555;53.248;10.336;2023-01-29T07:57:33;1.60;99.90
7028;DHT22;3555;53.248;10.336;2023-01-29T08:00:03;1.60;99.90
7028;DHT22;3555;53.248;10.336;2023-01-29T08:02:30;1.60;99.90
7028;DHT22;3555;53.248;10.336;2023-01-29T08:04:57;1.70;99.90
7028;DHT22;3555;53.248;10.336;2023-01-29T08:07:23;1.60;99.90
7028;DHT22;3555;53.248;10.336;2023-01-29T08:09:50;1.60;99.90
7028;DHT22;3555;53.248;10.336;2023-01-29T08:12:19;1.60;99.90
7028;DHT22;3555;53.248;10.336;2023-01-29T08:14:46;1.60;99.90
7028;DHT22;3555;53.248;10.336;2023-01-29T08:17:13;2.20;99.90
7028;DHT22;3555;53.248;10.336;2023-01-29T08:19:43;1.60;99.90
7028;DHT22;3555;53.248;10.336;2023-01-29T08:22:10;1.60;99.90
7028;DHT22;3555;53.248;10.336;2023-01-29T08:24:37;2.60;99.90
7028;DHT22;3555;53.248;10.336;2023-01-29T08:27:04;1.60;99.90
7028;DHT22;3555;53.248;10.336;2023-01-29T08:29:32;1.70;99.90
7028;DHT22;3555;53.248;10.336;2023-01-29T08:31:59;1.70;99.90
7028;DHT22;3555;53.248;10.336;2023-01-29T08:34:26;1.80;99.90
7028;DHT22;3555;53.248;10.336;2023-01-29T08:36:53;1.80;99.90
7028;DHT22;3555;53.248;10.336;2023-01-29T08:39:20;1.90;99.90
7028;DHT22;3555;53.248;10.336;2023-01-29T08:41:47;1.90;99.90
7028;DHT22;3555;53.248;10.336;2023-01-29T08:44:14;1.90;99.90
7028;DHT22;3555;53.248;10.336;2023-01-29T08:46:42;2.10;99.90
7028;DHT22;3555;53.248;10.336;2023-01-29T08:49:09;2.10;99.90
7028;DHT22;3555;53.248;10.336;2023-01-29T08:51:36;2.20;99.90
7028;DHT22;3555;53.248;10.336;2023-01-29T08:54:03;2.20;99.90
7028;DHT22;3555;53.248;10.336;2023-01-29T08:56:29;2.20;99.90
7028;DHT22;3555;53.248;10.336;2023-01-29T08:58:56;2.30;99.90
7028;DHT22;3555;53.248;10.336;2023-01-29T09:01:23;2.20;99.90
7028;DHT22;3555;53.248;10.336;2023-01-29T09:03:51;2.30;99.90
7028;DHT22;3555;53.248;10.336;2023-01-29T09:06:18;2.30;99.90
7028;DHT22;3555;53.248;10.336;2023-01-29T09:08:45;2.50;99.90
7028;DHT22;3555;53.248;10.336;2023-01-29T09:11:12;2.30;99.90
7028;DHT22;3555;53.248;10.336;2023-01-29T09:13:39;2.30;99.90
7028;DHT22;3555;53.248;10.336;2023-01-29T09:16:06;2.60;99.90
7028;DHT22;3555;53.248;10.336;2023-01-29T09:18:33;2.40;99.90
7028;DHT22;3555;53.248;10.336;2023-01-29T09:21:02;2.40;99.90
7028;DHT22;3555;53.248;10.336;2023-01-29T09:23:29;2.50;99.90
7028;DHT22;3555;53.248;10.336;2023-01-29T09:25:56;2.50;99.90
7028;DHT22;3555;53.248;10.336;2023-01-29T09:28:23;2.70;99.90
7028;DHT22;3555;53.248;10.336;2023-01-29T09:30:50;2.60;99.90
7028;DHT22;3555;53.248;10.336;2023-01-29T09:33:17;2.50;99.90
7028;DHT22;3555;53.248;10.336;2023-01-29T09:35:45;2.60;99.90
7028;DHT22;3555;53.248;10.336;2023-01-29T09:38:13;2.80;99.90
7028;DHT22;3555;53.248;10.336;2023-01-29T09:40:48;2.60;99.90
7028;DHT22;3555;53.248;10.336;2023-01-29T09:43:21;2.70;99.90
7028;DHT22;3555;53.248;10.336;2023-01-29T09:45:54;2.70;99.90
7028;DHT22;3555;53.248;10.336;2023-01-29T09:48:23;2.70;99.90
7028;DHT22;3555;53.248;10.336;2023-01-29T09:50:53;2.70;99.90
7028;DHT22;3555;53.248;10.336;2023-01-29T09:53:28;2.70;99.90
7028;DHT22;3555;53.248;10.336;2023-01-29T09:56:00;2.80;99.90
7028;DHT22;3555;53.248;10.336;2023-01-29T09:58:31;2.90;99.90
7028;DHT22;3555;53.248;10.336;2023-01-29T10:01:05;2.90;99.90
7028;DHT22;3555;53.248;10.336;2023-01-29T10:03:47;2.90;99.90
7028;DHT22;3555;53.248;10.336;2023-01-29T10:06:38;2.80;99.90
7028;DHT22;3555;53.248;10.336;2023-01-29T10:12:23;2.90;99.90
7028;DHT22;3555;53.248;10.336;2023-01-29T10:15:00;2.80;99.90
7028;DHT22;3555;53.248;10.336;2023-01-29T10:17:43;2.90;99.90
7028;DHT22;3555;53.248;10.336;2023-01-29T10:23:19;2.90;99.90
7028;DHT22;3555;53.248;10.336;2023-01-29T10:25:49;2.90;99.90
7028;DHT22;3555;53.248;10.336;2023-01-29T10:28:18;3.00;99.90
7028;DHT22;3555;53.248;10.336;2023-01-29T10:30:48;2.90;99.90
7028;DHT22;3555;53.248;10.336;2023-01-29T10:33:24;2.90;99.90
7028;DHT22;3555;53.248;10.336;2023-01-29T10:35:55;3.00;99.90
7028;DHT22;3555;53.248;10.336;2023-01-29T10:38:30;2.90;99.90
7028;DHT22;3555;53.248;10.336;2023-01-29T10:41:16;2.90;99.90
7028;DHT22;3555;53.248;10.336;2023-01-29T10:43:53;2.80;99.90
7028;DHT22;3555;53.248;10.336;2023-01-29T10:46:32;2.80;99.90
7028;DHT22;3555;53.248;10.336;2023-01-29T10:49:09;2.80;99.90
7028;DHT22;3555;53.248;10.336;2023-01-29T10:52:03;2.80;99.90
7028;DHT22;3555;53.248;10.336;2023-01-29T10:54:45;2.90;99.90
7028;DHT22;3555;53.248;10.336;2023-01-29T10:57:22;2.80;99.90
7028;DHT22;3555;53.248;10.336;2023-01-29T11:00:02;2.80;99.90
7028;DHT22;3555;53.248;10.336;2023-01-29T11:02:32;2.90;99.90
7028;DHT22;3555;53.248;10.336;2023-01-29T11:04:59;2.90;99.90
7028;DHT22;3555;53.248;10.336;2023-01-29T11:07:27;3.00;99.90
7028;DHT22;3555;53.248;10.336;2023-01-29T11:09:59;3.00;99.90
7028;DHT22;3555;53.248;10.336;2023-01-29T11:12:30;3.10;99.90
7028;DHT22;3555;53.248;10.336;2023-01-29T11:15:02;3.10;99.90
7028;DHT22;3555;53.248;10.336;2023-01-29T11:17:30;3.10;99.90
7028;DHT22;3555;53.248;10.336;2023-01-29T11:19:57;3.20;99.90
7028;DHT22;3555;53.248;10.336;2023-01-29T11:22:26;3.20;99.90
7028;DHT22;3555;53.248;10.336;2023-01-29T11:25:14;3.80;99.90
7028;DHT22;3555;53.248;10.336;2023-01-29T11:27:48;3.20;99.90
7028;DHT22;3555;53.248;10.336;2023-01-29T11:30:20;3.20;99.90
7028;DHT22;3555;53.248;10.336;2023-01-29T11:33:04;3.20;99.90
7028;DHT22;3555;53.248;10.336;2023-01-29T11:35:31;3.20;99.90
7028;DHT22;3555;53.248;10.336;2023-01-29T11:38:07;3.20;99.90
7028;DHT22;3555;53.248;10.336;2023-01-29T11:40:39;3.30;99.90
7028;DHT22;3555;53.248;10.336;2023-01-29T11:43:18;3.40;99.90
7028;DHT22;3555;53.248;10.336;2023-01-29T11:45:46;3.30;99.90
7028;DHT22;3555;53.248;10.336;2023-01-29T11:48:15;3.30;99.90
7028;DHT22;3555;53.248;10.336;2023-01-29T11:50:42;3.30;99.90
7028;DHT22;3555;53.248;10.336;2023-01-29T11:53:25;3.20;99.90
7028;DHT22;3555;53.248;10.336;2023-01-29T11:55:53;3.40;99.90
7028;DHT22;3555;53.248;10.336;2023-01-29T11:58:26;3.30;99.90
7028;DHT22;3555;53.248;10.336;2023-01-29T12:00:54;3.30;99.90
7028;DHT22;3555;53.248;10.336;2023-01-29T12:03:29;3.40;99.90
7028;DHT22;3555;53.248;10.336;2023-01-29T12:05:58;3.40;99.90
7028;DHT22;3555;53.248;10.336;2023-01-29T12:08:28;3.40;99.90
7028;DHT22;3555;53.248;10.336;2023-01-29T12:11:07;3.50;99.90
7028;DHT22;3555;53.248;10.336;2023-01-29T12:13:36;3.50;99.90
7028;DHT22;3555;53.248;10.336;2023-01-29T12:16:14;3.50;99.90
7028;DHT22;3555;53.248;10.336;2023-01-29T12:18:45;3.50;99.90
7028;DHT22;3555;53.248;10.336;2023-01-29T12:21:18;3.60;99.90
7028;DHT22;3555;53.248;10.336;2023-01-29T12:23:52;3.50;99.90
7028;DHT22;3555;53.248;10.336;2023-01-29T12:26:26;3.50;99.90
7028;DHT22;3555;53.248;10.336;2023-01-29T12:29:14;3.50;99.90
7028;DHT22;3555;53.248;10.336;2023-01-29T12:31:47;3.60;99.90
7028;DHT22;3555;53.248;10.336;2023-01-29T12:34:18;3.60;99.90
7028;DHT22;3555;53.248;10.336;2023-01-29T12:36:50;3.40;99.90
7028;DHT22;3555;53.248;10.336;2023-01-29T12:39:19;3.40;99.90
7028;DHT22;3555;53.248;10.336;2023-01-29T12:41:52;3.30;99.90
7028;DHT22;3555;53.248;10.336;2023-01-29T12:44:25;3.30;99.90
7028;DHT22;3555;53.248;10.336;2023-01-29T12:46:56;3.30;99.90
7028;DHT22;3555;53.248;10.336;2023-01-29T12:49:28;3.30;99.90
7028;DHT22;3555;53.248;10.336;2023-01-29T12:52:00;3.40;99.90
7028;DHT22;3555;53.248;10.336;2023-01-29T12:54:34;3.30;99.90
7028;DHT22;3555;53.248;10.336;2023-01-29T12:57:07;3.40;99.90
7028;DHT22;3555;53.248;10.336;2023-01-29T12:59:40;3.30;99.90
7028;DHT22;3555;53.248;10.336;2023-01-29T13:02:17;3.40;99.90
7028;DHT22;3555;53.248;10.336;2023-01-29T13:04:53;3.40;99.90
7028;DHT22;3555;53.248;10.336;2023-01-29T13:07:25;3.30;99.90
7028;DHT22;3555;53.248;10.336;2023-01-29T13:09:59;3.30;99.90
7028;DHT22;3555;53.248;10.336;2023-01-29T13:12:27;3.40;99.90
7028;DHT22;3555;53.248;10.336;2023-01-29T13:14:58;3.30;99.90
7028;DHT22;3555;53.248;10.336;2023-01-29T13:17:30;3.20;99.90
7028;DHT22;3555;53.248;10.336;2023-01-29T13:20:03;3.20;99.90
7028;DHT22;3555;53.248;10.336;2023-01-29T13:22:34;3.20;99.90
7028;DHT22;3555;53.248;10.336;2023-01-29T13:25:02;3.30;99.90
7028;DHT22;3555;53.248;10.336;2023-01-29T13:27:31;3.20;99.90
7028;DHT22;3555;53.248;10.336;2023-01-29T13:30:00;3.20;99.90
7028;DHT22;3555;53.248;10.336;2023-01-29T13:32:28;3.20;99.90
7028;DHT22;3555;53.248;10.336;2023-01-29T13:34:57;3.20;99.90
7028;DHT22;3555;53.248;10.336;2023-01-29T13:37:30;3.20;99.90
7028;DHT22;3555;53.248;10.336;2023-01-29T13:40:00;3.30;99.90
7028;DHT22;3555;53.248;10.336;2023-01-29T13:42:38;3.30;99.90
7028;DHT22;3555;53.248;10.336;2023-01-29T13:45:18;3.40;99.90
7028;DHT22;3555;53.248;10.336;2023-01-29T13:47:45;3.30;99.90
7028;DHT22;3555;53.248;10.336;2023-01-29T13:50:18;3.40;99.90
7028;DHT22;3555;53.248;10.336;2023-01-29T13:52:53;3.30;99.90
7028;DHT22;3555;53.248;10.336;2023-01-29T13:55:23;3.40;99.90
7028;DHT22;3555;53.248;10.336;2023-01-29T13:57:55;3.40;99.90
7028;DHT22;3555;53.248;10.336;2023-01-29T14:00:57;3.50;99.90
7028;DHT22;3555;53.248;10.336;2023-01-29T14:03:43;3.50;99.90
7028;DHT22;3555;53.248;10.336;2023-01-29T14:06:10;3.50;99.90
7028;DHT22;3555;53.248;10.336;2023-01-29T14:08:39;3.50;99.90
7028;DHT22;3555;53.248;10.336;2023-01-29T14:11:35;3.40;99.90
7028;DHT22;3555;53.248;10.336;2023-01-29T14:14:01;3.40;99.90
7028;DHT22;3555;53.248;10.336;2023-01-29T14:16:50;3.50;99.90
7028;DHT22;3555;53.248;10.336;2023-01-29T14:19:17;3.40;99.90
7028;DHT22;3555;53.248;10.336;2023-01-29T14:21:48;3.40;99.90
7028;DHT22;3555;53.248;10.336;2023-01-29T14:24:17;3.40;99.90
7028;DHT22;3555;53.248;10.336;2023-01-29T14:26:47;3.30;99.90
7028;DHT22;3555;53.248;10.336;2023-01-29T14:29:18;3.30;99.90
7028;DHT22;3555;53.248;10.336;2023-01-29T14:31:51;3.20;99.90
7028;DHT22;3555;53.248;10.336;2023-01-29T14:34:23;3.10;99.90
7028;DHT22;3555;53.248;10.336;2023-01-29T14:36:53;3.10;99.90
7028;DHT22;3555;53.248;10.336;2023-01-29T14:39:32;3.10;99.90
7028;DHT22;3555;53.248;10.336;2023-01-29T14:42:02;3.10;99.90
7028;DHT22;3555;53.248;10.336;2023-01-29T14:53:28;3.10;99.90
7028;DHT22;3555;53.248;10.336;2023-01-29T14:56:00;3.00;99.90
7028;DHT22;3555;53.248;10.336;2023-01-29T14:58:37;3.00;99.90
7028;DHT22;3555;53.248;10.336;2023-01-29T15:01:18;2.90;99.90
7028;DHT22;3555;53.248;10.336;2023-01-29T15:03:48;2.90;99.90
7028;DHT22;3555;53.248;10.336;2023-01-29T15:06:20;3.00;99.90
7028;DHT22;3555;53.248;10.336;2023-01-29T15:08:55;2.90;99.90
7028;DHT22;3555;53.248;10.336;2023-01-29T15:11:31;2.90;99.90
7028;DHT22;3555;53.248;10.336;2023-01-29T15:16:59;2.90;99.90
7028;DHT22;3555;53.248;10.336;2023-01-29T15:19:33;2.90;99.90
7028;DHT22;3555;53.248;10.336;2023-01-29T15:22:05;2.90;99.90
7028;DHT22;3555;53.248;10.336;2023-01-29T15:24:33;2.90;99.90
7028;DHT22;3555;53.248;10.336;2023-01-29T15:27:00;2.90;99.90
7028;DHT22;3555;53.248;10.336;2023-01-29T15:29:28;2.90;99.90
7028;DHT22;3555;53.248;10.336;2023-01-29T15:31:55;2.80;99.90
7028;DHT22;3555;53.248;10.336;2023-01-29T15:34:23;2.80;99.90
7028;DHT22;3555;53.248;10.336;2023-01-29T15:36:51;2.80;99.90
7028;DHT22;3555;53.248;10.336;2023-01-29T15:39:20;2.80;99.90
7028;DHT22;3555;53.248;10.336;2023-01-29T15:41:47;2.70;99.90
7028;DHT22;3555;53.248;10.336;2023-01-29T15:44:17;2.80;99.90
7028;DHT22;3555;53.248;10.336;2023-01-29T15:46:48;2.70;99.90
7028;DHT22;3555;53.248;10.336;2023-01-29T15:49:20;2.70;99.90
7028;DHT22;3555;53.248;10.336;2023-01-29T15:51:54;2.80;99.90
7028;DHT22;3555;53.248;10.336;2023-01-29T15:54:23;2.70;99.90
7028;DHT22;3555;53.248;10.336;2023-01-29T15:56:51;2.70;99.90
7028;DHT22;3555;53.248;10.336;2023-01-29T15:59:21;2.70;99.90
7028;DHT22;3555;53.248;10.336;2023-01-29T16:01:49;2.70;99.90
7028;DHT22;3555;53.248;10.336;2023-01-29T16:04:19;2.60;99.90
7028;DHT22;3555;53.248;10.336;2023-01-29T16:06:50;2.70;99.90
7028;DHT22;3555;53.248;10.336;2023-01-29T16:09:21;2.60;99.90
7028;DHT22;3555;53.248;10.336;2023-01-29T16:11:49;2.60;99.90
7028;DHT22;3555;53.248;10.336;2023-01-29T16:14:19;2.60;99.90
7028;DHT22;3555;53.248;10.336;2023-01-29T16:16:47;2.60;99.90
7028;DHT22;3555;53.248;10.336;2023-01-29T16:19:25;2.70;99.90
7028;DHT22;3555;53.248;10.336;2023-01-29T16:21:59;2.60;99.90
7028;DHT22;3555;53.248;10.336;2023-01-29T16:24:26;2.70;99.90
7028;DHT22;3555;53.248;10.336;2023-01-29T16:26:58;2.70;99.90
7028;DHT22;3555;53.248;10.336;2023-01-29T16:29:30;2.70;99.90
7028;DHT22;3555;53.248;10.336;2023-01-29T16:31:58;2.70;99.90
7028;DHT22;3555;53.248;10.336;2023-01-29T16:34:29;2.70;99.90
7028;DHT22;3555;53.248;10.336;2023-01-29T16:36:59;2.70;99.90
7028;DHT22;3555;53.248;10.336;2023-01-29T16:39:29;2.60;99.90
7028;DHT22;3555;53.248;10.336;2023-01-29T16:42:19;2.60;99.90
7028;DHT22;3555;53.248;10.336;2023-01-29T16:44:50;2.60;99.90
7028;DHT22;3555;53.248;10.336;2023-01-29T16:47:30;2.70;99.90
7028;DHT22;3555;53.248;10.336;2023-01-29T16:49:58;2.60;99.90